createdAt,value
2023-02-19T00:01:34.576Z,1.27
2023-02-19T00:04:08.061Z,1.00
2023-02-19T00:06:36.078Z,0.88
2023-02-19T00:09:03.730Z,0.93
2023-02-19T00:11:33.210Z,1.05
2023-02-19T00:14:04.259Z,1.00
2023-02-19T00:16:33.491Z,1.25
2023-02-19T00:19:05.337Z,1.00
2023-02-19T00:21:33.669Z,1.00
2023-02-19T00:24:03.530Z,1.15
2023-02-19T00:26:30.964Z,1.20
2023-02-19T00:28:58.583Z,1.55
2023-02-19T00:31:32.218Z,1.10
2023-02-19T00:34:05.942Z,1.33
2023-02-19T00:36:36.131Z,1.00
2023-02-19T00:39:18.865Z,0.95
2023-02-19T00:41:46.578Z,1.00
2023-02-19T00:44:14.486Z,1.20
2023-02-19T00:46:46.800Z,0.90
2023-02-19T00:49:17.936Z,1.00
2023-02-19T00:51:44.721Z,0.90
2023-02-19T00:54:12.802Z,0.98
2023-02-19T00:56:39.708Z,1.00
2023-02-19T00:59:06.623Z,1.48
2023-02-19T01:01:33.404Z,1.30
2023-02-19T01:04:00.165Z,1.05
2023-02-19T01:06:29.928Z,0.77
2023-02-19T01:08:56.767Z,1.50
2023-02-19T01:11:23.595Z,1.08
2023-02-19T01:13:50.561Z,0.80
2023-02-19T01:16:20.075Z,1.08
2023-02-19T01:18:47.895Z,1.33
2023-02-19T01:21:20.298Z,1.02
2023-02-19T01:23:47.879Z,1.00
2023-02-19T01:26:20.595Z,1.17
2023-02-19T01:28:48.442Z,1.20
2023-02-19T01:31:21.637Z,1.20
2023-02-19T01:33:54.901Z,1.30
2023-02-19T01:36:22.055Z,1.25
2023-02-19T01:38:49.859Z,0.90
2023-02-19T01:41:19.913Z,1.60
2023-02-19T01:44:05.291Z,1.25
2023-02-19T01:46:42.916Z,1.42
2023-02-19T01:49:22.703Z,1.15
2023-02-19T01:52:03.281Z,0.98
2023-02-19T01:54:34.696Z,1.55
2023-02-19T01:57:05.214Z,1.13
2023-02-19T01:59:33.168Z,0.98
2023-02-19T02:02:00.976Z,0.88
2023-02-19T02:04:29.792Z,1.27
2023-02-19T02:06:58.683Z,1.25
2023-02-19T02:09:49.228Z,1.30
2023-02-19T02:12:15.995Z,1.20
2023-02-19T02:14:46.718Z,0.85
2023-02-19T02:17:39.143Z,1.10
2023-02-19T02:23:06.215Z,1.30
2023-02-19T02:26:20.684Z,1.20
2023-02-19T02:28:53.380Z,1.38
2023-02-19T02:31:44.062Z,1.77
2023-02-19T02:34:33.675Z,1.05
2023-02-19T02:37:01.561Z,1.35
2023-02-19T02:39:30.530Z,1.58
2023-02-19T02:42:18.681Z,1.10
2023-02-19T02:45:05.701Z,0.90
2023-02-19T02:47:44.866Z,1.55
2023-02-19T02:50:17.879Z,1.13
2023-02-19T02:53:05.320Z,1.40
2023-02-19T02:55:37.794Z,1.60
2023-02-19T02:58:05.301Z,1.55
2023-02-19T03:00:52.305Z,1.45
2023-02-19T03:03:23.128Z,1.20
2023-02-19T03:05:54.444Z,1.30
2023-02-19T03:08:47.366Z,1.58
2023-02-19T03:11:32.943Z,1.13
2023-02-19T03:14:36.965Z,1.55
2023-02-19T03:17:32.281Z,1.25
2023-02-19T03:20:01.135Z,1.80
2023-02-19T03:22:31.016Z,1.30
2023-02-19T03:25:33.082Z,1.75
2023-02-19T03:28:02.813Z,1.55
2023-02-19T03:30:34.416Z,2.13
2023-02-19T03:33:08.169Z,2.22
2023-02-19T03:35:43.320Z,2.08
2023-02-19T03:38:28.992Z,1.60
2023-02-19T03:41:05.068Z,1.67
2023-02-19T03:43:42.888Z,1.95
2023-02-19T03:46:17.970Z,1.50
2023-02-19T03:49:01.332Z,1.60
2023-02-19T03:51:39.201Z,2.08
2023-02-19T03:54:16.517Z,1.65
2023-02-19T03:56:52.325Z,2.00
2023-02-19T03:59:21.531Z,1.80
2023-02-19T04:01:55.398Z,2.00
2023-02-19T04:05:08.523Z,2.03
2023-02-19T04:07:38.091Z,1.80
2023-02-19T04:10:07.635Z,1.80
2023-02-19T04:12:38.742Z,1.88
2023-02-19T04:15:13.472Z,1.92
2023-02-19T04:17:56.355Z,2.10
2023-02-19T04:20:27.301Z,1.70
2023-02-19T04:22:54.359Z,1.77
2023-02-19T04:25:22.314Z,2.20
2023-02-19T04:27:49.135Z,2.03
2023-02-19T04:30:15.999Z,2.00
2023-02-19T04:32:42.757Z,1.60
2023-02-19T04:35:09.510Z,2.20
2023-02-19T04:37:36.359Z,1.63
2023-02-19T04:40:03.192Z,1.95
2023-02-19T04:42:29.991Z,2.08
2023-02-19T04:44:56.750Z,2.00
2023-02-19T04:47:23.544Z,1.52
2023-02-19T04:49:50.290Z,2.08
2023-02-19T04:52:17.141Z,1.85
2023-02-19T04:54:43.923Z,2.75
2023-02-19T04:57:10.677Z,2.20
2023-02-19T04:59:37.417Z,2.17
2023-02-19T05:02:04.171Z,2.03
2023-02-19T05:04:31.115Z,2.28
2023-02-19T05:06:57.864Z,1.92
2023-02-19T05:09:24.568Z,2.17
2023-02-19T05:11:51.316Z,2.10
2023-02-19T05:14:18.135Z,2.50
2023-02-19T05:16:44.894Z,2.65
2023-02-19T05:19:12.801Z,1.88
2023-02-19T05:21:42.596Z,2.40
2023-02-19T05:24:09.653Z,2.17
2023-02-19T05:26:36.559Z,2.38
2023-02-19T05:29:03.718Z,2.70
2023-02-19T05:31:30.687Z,2.00
2023-02-19T05:33:57.824Z,2.10
2023-02-19T05:36:24.751Z,2.47
2023-02-19T05:38:56.104Z,2.83
2023-02-19T05:41:28.152Z,2.25
2023-02-19T05:43:56.022Z,2.28
2023-02-19T05:46:25.909Z,2.13
2023-02-19T05:48:53.805Z,2.20
2023-02-19T05:51:23.157Z,1.73
2023-02-19T05:53:50.455Z,3.15
2023-02-19T05:56:26.286Z,2.15
2023-02-19T05:58:54.610Z,1.67
2023-02-19T06:01:24.175Z,1.90
2023-02-19T06:03:50.994Z,2.10
2023-02-19T06:06:19.485Z,2.63
2023-02-19T06:08:47.730Z,1.92
2023-02-19T06:11:14.465Z,2.08
2023-02-19T06:13:41.233Z,1.75
2023-02-19T06:16:08.761Z,1.90
2023-02-19T06:18:35.725Z,2.10
2023-02-19T06:21:04.349Z,1.92
2023-02-19T06:23:31.748Z,2.20
2023-02-19T06:26:11.933Z,2.53
2023-02-19T06:28:40.357Z,2.28
2023-02-19T06:31:09.090Z,2.03
2023-02-19T06:33:36.768Z,2.13
2023-02-19T06:36:04.418Z,2.05
2023-02-19T06:38:31.619Z,2.08
2023-02-19T06:41:03.072Z,2.22
2023-02-19T06:43:29.993Z,1.65
2023-02-19T06:45:59.931Z,1.92
2023-02-19T06:48:27.968Z,2.50
2023-02-19T06:50:55.080Z,2.10
2023-02-19T06:53:21.966Z,1.83
2023-02-19T06:56:00.865Z,2.35
2023-02-19T06:58:28.103Z,1.95
2023-02-19T07:00:54.852Z,2.20
2023-02-19T07:03:22.457Z,2.10
2023-02-19T07:05:49.715Z,2.10
2023-02-19T07:08:19.581Z,2.42
2023-02-19T07:10:53.612Z,2.65
2023-02-19T07:13:20.349Z,2.63
2023-02-19T07:15:47.102Z,2.72
2023-02-19T07:18:13.862Z,2.65
2023-02-19T07:20:40.640Z,2.63
2023-02-19T07:23:07.374Z,2.83
2023-02-19T07:25:34.162Z,2.47
2023-02-19T07:28:00.880Z,2.53
2023-02-19T07:30:27.662Z,2.78
2023-02-19T07:32:54.475Z,2.33
2023-02-19T07:35:21.333Z,2.78
2023-02-19T07:37:48.091Z,2.88
2023-02-19T07:40:14.961Z,2.00
2023-02-19T07:42:41.796Z,3.15
2023-02-19T07:45:08.623Z,2.20
2023-02-19T07:47:35.600Z,2.10
2023-02-19T07:50:04.638Z,2.05
2023-02-19T07:52:33.290Z,2.35
2023-02-19T07:55:00.029Z,2.13
2023-02-19T07:57:28.862Z,2.40
2023-02-19T07:59:55.636Z,2.00
2023-02-19T08:02:51.723Z,2.22
2023-02-19T08:05:20.989Z,1.90
2023-02-19T08:07:48.390Z,2.00
2023-02-19T08:10:33.738Z,1.50
2023-02-19T08:13:19.761Z,1.83
2023-02-19T08:15:47.333Z,2.10
2023-02-19T08:18:16.474Z,2.13
2023-02-19T08:20:44.017Z,1.90
2023-02-19T08:23:12.194Z,1.88
2023-02-19T08:25:39.765Z,1.08
2023-02-19T08:28:07.924Z,1.70
2023-02-19T08:30:38.145Z,1.67
2023-02-19T08:33:06.704Z,1.77
2023-02-19T08:35:36.530Z,1.17
2023-02-19T08:38:04.945Z,0.80
2023-02-19T08:40:32.180Z,0.80
2023-02-19T08:43:06.125Z,1.00
2023-02-19T08:45:33.218Z,0.80
2023-02-19T08:48:00.393Z,0.75
2023-02-19T08:50:27.389Z,0.80
2023-02-19T08:52:54.280Z,0.30
2023-02-19T08:55:21.224Z,0.40
2023-02-19T08:57:50.322Z,0.30
2023-02-19T09:00:17.886Z,0.20
2023-02-19T09:02:44.695Z,0.10
2023-02-19T09:05:12.289Z,0.10
2023-02-19T09:07:39.516Z,0.10
2023-02-19T09:10:26.740Z,0.20
2023-02-19T09:12:53.522Z,0.05
2023-02-19T09:15:20.870Z,0.00
2023-02-19T09:17:52.689Z,0.08
2023-02-19T09:20:20.656Z,0.20
2023-02-19T09:22:47.610Z,0.10
2023-02-19T09:25:14.466Z,0.00
2023-02-19T09:27:41.293Z,0.10
2023-02-19T09:30:08.451Z,0.20
2023-02-19T09:32:35.210Z,0.10
2023-02-19T09:35:02.054Z,0.10
2023-02-19T09:37:28.867Z,0.20
2023-02-19T09:39:55.877Z,0.20
2023-02-19T09:42:30.069Z,0.30
2023-02-19T09:44:59.004Z,0.30
2023-02-19T09:47:28.837Z,0.30
2023-02-19T09:50:18.869Z,0.20
2023-02-19T09:52:56.779Z,0.30
2023-02-19T09:55:36.624Z,0.20
2023-02-19T09:58:22.636Z,0.10
2023-02-19T10:00:51.040Z,0.10
2023-02-19T10:03:27.818Z,0.28
2023-02-19T10:05:56.583Z,0.10
2023-02-19T10:08:23.502Z,0.20
2023-02-19T10:10:51.418Z,0.10
2023-02-19T10:13:21.659Z,0.20
2023-02-19T10:15:52.368Z,0.10
2023-02-19T10:18:22.808Z,0.20
2023-02-19T10:20:52.176Z,0.10
2023-02-19T10:23:20.010Z,0.20
2023-02-19T10:25:54.396Z,0.30
2023-02-19T10:28:25.033Z,0.35
2023-02-19T10:30:55.160Z,0.10
2023-02-19T10:33:22.710Z,0.10
2023-02-19T10:35:55.702Z,0.10
2023-02-19T10:38:39.021Z,0.10
2023-02-19T10:41:07.928Z,0.10
2023-02-19T10:43:42.899Z,0.03
2023-02-19T10:46:33.581Z,0.10
2023-02-19T10:49:06.132Z,0.08
2023-02-19T10:51:36.324Z,0.10
2023-02-19T10:54:07.820Z,0.20
2023-02-19T10:56:35.083Z,0.03
2023-02-19T10:59:34.410Z,0.00
2023-02-19T11:02:04.105Z,0.30
2023-02-19T11:04:38.269Z,0.15
2023-02-19T11:07:15.509Z,0.10
2023-02-19T11:09:45.474Z,0.00
2023-02-19T11:12:14.640Z,0.10
2023-02-19T11:14:49.865Z,0.10
2023-02-19T11:17:30.652Z,0.03
2023-02-19T11:20:03.181Z,0.10
2023-02-19T11:22:38.342Z,0.13
2023-02-19T11:25:17.880Z,0.10
2023-02-19T11:28:07.411Z,0.00
2023-02-19T11:30:40.544Z,0.20
2023-02-19T11:33:16.735Z,0.20
2023-02-19T11:35:44.656Z,0.35
2023-02-19T11:38:13.528Z,0.20
2023-02-19T11:40:58.183Z,0.20
2023-02-19T11:43:36.267Z,0.50
2023-02-19T11:46:17.424Z,0.32
2023-02-19T11:49:15.238Z,0.17
2023-02-19T11:51:47.614Z,0.10
2023-02-19T11:54:39.400Z,0.13
2023-02-19T11:57:47.528Z,0.40
2023-02-19T12:00:31.374Z,0.30
2023-02-19T12:03:43.600Z,0.20
2023-02-19T12:06:28.470Z,0.40
2023-02-19T12:09:06.363Z,0.20
2023-02-19T12:11:59.594Z,0.10
2023-02-19T12:14:47.648Z,0.20
2023-02-19T12:17:40.133Z,0.00
2023-02-19T12:23:25.866Z,0.10
2023-02-19T12:26:34.095Z,0.13
2023-02-19T12:29:17.265Z,0.17
2023-02-19T12:32:21.304Z,0.68
2023-02-19T12:35:17.418Z,0.20
2023-02-19T12:38:25.670Z,0.20
2023-02-19T12:41:28.057Z,0.30
2023-02-19T12:44:13.767Z,0.22
2023-02-19T12:46:46.861Z,0.22
2023-02-19T12:49:26.435Z,0.28
2023-02-19T12:51:59.317Z,0.30
2023-02-19T12:54:41.272Z,0.15
2023-02-19T12:57:18.482Z,0.95
2023-02-19T13:00:03.475Z,0.10
2023-02-19T13:02:45.206Z,0.10
2023-02-19T13:05:44.739Z,0.10
2023-02-19T13:08:26.399Z,0.10
2023-02-19T13:11:11.492Z,0.10
2023-02-19T13:13:50.934Z,0.15
2023-02-19T13:16:20.701Z,0.00
2023-02-19T13:18:54.431Z,0.00
2023-02-19T13:21:43.076Z,0.08
2023-02-19T13:24:15.416Z,0.20
2023-02-19T13:26:42.115Z,0.20
2023-02-19T13:29:24.006Z,0.17
2023-02-19T13:32:20.025Z,0.20
2023-02-19T13:35:19.376Z,0.30
2023-02-19T13:37:47.019Z,0.03
2023-02-19T13:40:36.006Z,0.10
2023-02-19T13:43:08.675Z,0.45
2023-02-19T13:45:43.578Z,12.55
2023-02-19T13:48:16.165Z,6.90
2023-02-19T13:50:43.008Z,4.95
2023-02-19T13:53:42.555Z,4.20
2023-02-19T13:56:36.977Z,0.98
2023-02-19T13:59:12.776Z,0.30
2023-02-19T14:01:51.559Z,0.30
2023-02-19T14:04:24.067Z,0.40
2023-02-19T14:07:05.934Z,0.20
2023-02-19T14:09:43.746Z,0.30
2023-02-19T14:12:10.504Z,0.35
2023-02-19T14:14:41.348Z,0.10
2023-02-19T14:17:29.340Z,0.40
2023-02-19T14:20:09.021Z,0.10
2023-02-19T14:23:01.506Z,0.68
2023-02-19T14:25:30.990Z,0.10
2023-02-19T14:28:18.521Z,0.20
2023-02-19T14:30:52.571Z,0.30
2023-02-19T14:33:32.765Z,0.52
2023-02-19T14:36:05.969Z,0.38
2023-02-19T14:38:47.741Z,0.80
2023-02-19T14:41:16.726Z,0.30
2023-02-19T14:43:45.403Z,0.40
2023-02-19T14:46:19.674Z,0.85
2023-02-19T14:48:49.302Z,0.40
2023-02-19T14:51:38.984Z,0.60
2023-02-19T14:54:15.789Z,0.30
2023-02-19T14:56:50.142Z,1.00
2023-02-19T14:59:19.958Z,0.10
2023-02-19T15:01:53.113Z,0.30
2023-02-19T15:04:29.070Z,0.30
2023-02-19T15:06:57.438Z,0.50
2023-02-19T15:09:31.720Z,0.30
2023-02-19T15:11:59.548Z,0.30
2023-02-19T15:14:30.597Z,0.30
2023-02-19T15:17:06.141Z,0.70
2023-02-19T15:19:36.105Z,0.30
2023-02-19T15:22:03.405Z,0.77
2023-02-19T15:24:30.569Z,0.20
2023-02-19T15:26:57.587Z,0.20
2023-02-19T15:29:26.945Z,0.35
2023-02-19T15:31:58.546Z,0.32
2023-02-19T15:34:30.435Z,0.40
2023-02-19T15:37:01.004Z,0.40
2023-02-19T15:39:34.660Z,0.60
2023-02-19T15:42:03.526Z,0.38
2023-02-19T15:44:42.248Z,0.73
2023-02-19T15:47:15.275Z,0.45
2023-02-19T15:50:05.149Z,0.30
2023-02-19T15:52:45.739Z,0.25
2023-02-19T15:55:18.405Z,0.20
2023-02-19T15:57:51.283Z,0.43
2023-02-19T16:00:26.805Z,0.50
2023-02-19T16:02:58.151Z,0.30
2023-02-19T16:05:27.237Z,0.32
2023-02-19T16:08:19.552Z,0.70
2023-02-19T16:10:57.891Z,0.73
2023-02-19T16:13:27.469Z,0.50
2023-02-19T16:16:15.408Z,0.50
2023-02-19T16:18:47.974Z,0.30
2023-02-19T16:21:17.271Z,0.45
2023-02-19T16:23:47.017Z,0.45
2023-02-19T16:26:14.057Z,0.75
2023-02-19T16:28:42.037Z,0.38
2023-02-19T16:31:11.273Z,0.40
2023-02-19T16:33:39.956Z,0.32
2023-02-19T16:36:41.594Z,0.77
2023-02-19T16:39:08.410Z,0.47
2023-02-19T16:42:00.224Z,0.77
2023-02-19T16:44:31.205Z,0.30
2023-02-19T16:47:05.978Z,0.28
2023-02-19T16:49:32.910Z,1.25
2023-02-19T16:52:02.619Z,1.52
2023-02-19T16:54:30.601Z,12.50
2023-02-19T16:56:57.307Z,6.93
2023-02-19T16:59:24.071Z,0.90
2023-02-19T17:01:50.864Z,0.73
2023-02-19T17:04:17.700Z,1.00
2023-02-19T17:06:45.626Z,0.40
2023-02-19T17:09:12.921Z,0.55
2023-02-19T17:11:39.720Z,0.50
2023-02-19T17:14:06.802Z,0.77
2023-02-19T17:16:40.652Z,0.82
2023-02-19T17:19:16.991Z,1.60
2023-02-19T17:21:45.269Z,1.00
2023-02-19T17:24:12.097Z,0.70
2023-02-19T17:26:39.009Z,1.10
2023-02-19T17:29:08.526Z,0.80
2023-02-19T17:31:35.368Z,1.40
2023-02-19T17:34:02.159Z,1.75
2023-02-19T17:36:31.112Z,3.08
2023-02-19T17:38:59.906Z,2.53
2023-02-19T17:41:27.010Z,2.90
2023-02-19T17:43:53.768Z,0.70
2023-02-19T17:46:26.201Z,3.40
2023-02-19T17:48:53.905Z,4.13
2023-02-19T17:51:21.009Z,2.15
2023-02-19T17:53:47.860Z,2.88
2023-02-19T17:56:21.081Z,1.30
2023-02-19T17:58:47.990Z,0.52
2023-02-19T18:01:15.642Z,0.60
2023-02-19T18:03:42.812Z,0.70
2023-02-19T18:06:09.772Z,0.85
2023-02-19T18:08:36.829Z,0.60
2023-02-19T18:11:04.058Z,0.50
2023-02-19T18:13:30.859Z,0.50
2023-02-19T18:15:57.730Z,0.38
2023-02-19T18:18:24.523Z,1.15
2023-02-19T18:20:51.386Z,0.57
2023-02-19T18:23:20.505Z,0.50
2023-02-19T18:25:47.440Z,0.40
2023-02-19T18:28:15.091Z,1.27
2023-02-19T18:30:41.995Z,0.90
2023-02-19T18:33:10.986Z,0.93
2023-02-19T18:35:38.542Z,0.57
2023-02-19T18:38:05.469Z,0.55
2023-02-19T18:40:32.242Z,0.80
2023-02-19T18:42:59.136Z,0.40
2023-02-19T18:45:25.922Z,1.17
2023-02-19T18:47:52.939Z,0.98
2023-02-19T18:50:20.353Z,0.60
2023-02-19T18:52:47.231Z,0.80
2023-02-19T18:55:14.075Z,0.98
2023-02-19T18:57:40.948Z,0.60
2023-02-19T19:00:08.436Z,0.68
2023-02-19T19:02:48.447Z,0.45
2023-02-19T19:05:20.908Z,0.85
2023-02-19T19:07:47.656Z,0.52
2023-02-19T19:10:14.825Z,0.57
2023-02-19T19:12:41.575Z,0.65
2023-02-19T19:15:08.802Z,0.80
2023-02-19T19:17:35.626Z,0.85
2023-02-19T19:20:02.396Z,1.10
2023-02-19T19:22:29.124Z,0.50
2023-02-19T19:24:55.843Z,0.60
2023-02-19T19:27:22.588Z,1.27
2023-02-19T19:29:49.691Z,1.05
2023-02-19T19:32:16.677Z,0.77
2023-02-19T19:34:43.601Z,0.77
2023-02-19T19:37:10.831Z,1.67
2023-02-19T19:39:37.650Z,0.77
2023-02-19T19:42:04.788Z,1.13
2023-02-19T19:44:31.583Z,1.20
2023-02-19T19:46:58.497Z,0.60
2023-02-19T19:49:25.330Z,1.10
2023-02-19T19:51:52.181Z,1.25
2023-02-19T19:54:18.906Z,1.33
2023-02-19T19:56:47.353Z,1.27
2023-02-19T19:59:15.959Z,1.10
2023-02-19T20:01:54.822Z,1.13
2023-02-19T20:04:23.655Z,0.90
2023-02-19T20:06:51.044Z,0.80
2023-02-19T20:09:18.860Z,0.80
2023-02-19T20:11:50.929Z,1.45
2023-02-19T20:14:19.630Z,0.75
2023-02-19T20:16:47.635Z,0.90
2023-02-19T20:19:15.514Z,1.17
2023-02-19T20:21:50.395Z,0.80
2023-02-19T20:24:19.991Z,0.60
2023-02-19T20:26:46.939Z,0.95
2023-02-19T20:29:13.702Z,1.08
2023-02-19T20:31:40.717Z,1.00
2023-02-19T20:34:07.731Z,0.70
2023-02-19T20:36:41.556Z,1.00
2023-02-19T20:39:08.366Z,0.55
2023-02-19T20:41:35.147Z,2.22
2023-02-19T20:44:02.147Z,0.70
2023-02-19T20:46:29.892Z,0.93
2023-02-19T20:48:57.044Z,1.35
2023-02-19T20:51:23.871Z,1.10
2023-02-19T20:53:50.586Z,1.00
2023-02-19T20:56:17.536Z,1.17
2023-02-19T20:58:44.369Z,0.77
2023-02-19T21:01:12.076Z,0.85
2023-02-19T21:03:38.866Z,0.85
2023-02-19T21:06:05.851Z,0.65
2023-02-19T21:08:32.584Z,0.90
2023-02-19T21:10:59.376Z,1.10
2023-02-19T21:13:26.218Z,1.25
2023-02-19T21:15:52.961Z,1.00
2023-02-19T21:18:20.009Z,1.52
2023-02-19T21:20:46.854Z,0.68
2023-02-19T21:23:14.211Z,0.80
2023-02-19T21:25:40.968Z,1.20
2023-02-19T21:28:09.119Z,0.60
2023-02-19T21:30:36.036Z,0.70
2023-02-19T21:33:03.082Z,0.90
2023-02-19T21:35:29.781Z,1.27
2023-02-19T21:37:56.584Z,1.00
2023-02-19T21:40:23.486Z,0.88
2023-02-19T21:42:50.221Z,1.05
2023-02-19T21:45:17.034Z,1.00
2023-02-19T21:47:44.018Z,1.10
2023-02-19T21:50:11.015Z,1.48
2023-02-19T21:52:37.781Z,1.05
2023-02-19T21:55:04.777Z,1.02
2023-02-19T21:57:32.699Z,0.75
2023-02-19T21:59:59.427Z,0.75
2023-02-19T22:02:26.174Z,1.30
2023-02-19T22:04:53.834Z,1.10
2023-02-19T22:07:21.928Z,1.00
2023-02-19T22:09:49.877Z,1.20
2023-02-19T22:12:18.104Z,1.02
2023-02-19T22:14:45.608Z,0.95
2023-02-19T22:17:12.493Z,1.20
2023-02-19T22:19:39.370Z,0.85
2023-02-19T22:22:06.182Z,1.20
2023-02-19T22:24:33.032Z,1.70
2023-02-19T22:26:59.910Z,1.10
2023-02-19T22:29:26.816Z,1.40
2023-02-19T22:31:54.083Z,0.80
2023-02-19T22:34:20.910Z,0.85
2023-02-19T22:36:48.562Z,1.08
2023-02-19T22:39:22.154Z,1.05
2023-02-19T22:41:49.030Z,1.10
2023-02-19T22:44:15.962Z,1.35
2023-02-19T22:46:48.274Z,0.85
2023-02-19T22:49:15.558Z,2.30
2023-02-19T22:51:49.049Z,1.17
2023-02-19T22:54:16.614Z,1.13
2023-02-19T22:56:43.810Z,1.27
2023-02-19T22:59:10.520Z,1.20
2023-02-19T23:01:37.340Z,1.05
2023-02-19T23:04:04.241Z,1.05
2023-02-19T23:06:33.221Z,1.17
2023-02-19T23:09:05.610Z,1.20
2023-02-19T23:11:35.407Z,1.02
2023-02-19T23:14:02.302Z,0.93
2023-02-19T23:16:29.488Z,0.90
2023-02-19T23:18:56.325Z,1.15
2023-02-19T23:21:23.684Z,1.38
2023-02-19T23:23:50.659Z,1.35
2023-02-19T23:26:17.833Z,0.95
2023-02-19T23:28:45.249Z,1.52
2023-02-19T23:31:12.865Z,0.68
2023-02-19T23:33:39.856Z,0.90
2023-02-19T23:36:07.338Z,1.13
2023-02-19T23:38:34.226Z,1.40
2023-02-19T23:41:01.077Z,1.10
2023-02-19T23:43:28.091Z,1.27
2023-02-19T23:45:55.033Z,0.80
2023-02-19T23:48:21.834Z,0.95
2023-02-19T23:50:48.945Z,0.88
2023-02-19T23:53:15.759Z,1.05
2023-02-19T23:55:45.337Z,1.77
2023-02-19T23:58:12.135Z,0.82
